sensor_id;sensor_type;location;lat;lon;timestamp;pressure;altitude;pressure_sealevel;temperature;humidity
12360;BME280;6244;51.460;7.090;2023-06-01T00:01:30;101217.25;;;17.26;58.57
12360;BME280;6244;51.460;7.090;2023-06-01T00:06:32;101215.56;;;17.13;59.07
12360;BME280;6244;51.460;7.090;2023-06-01T00:11:29;101220.41;;;17.19;58.55
12360;BME280;6244;51.460;7.090;2023-06-01T00:16:25;101214.78;;;17.23;58.80
12360;BME280;6244;51.460;7.090;2023-06-01T00:21:24;101216.69;;;17.09;59.01
12360;BME280;6244;51.460;7.090;2023-06-01T00:26:20;101215.44;;;16.89;59.36
12360;BME280;6244;51.460;7.090;2023-06-01T00:31:17;101214.91;;;16.96;58.65
12360;BME280;6244;51.460;7.090;2023-06-01T00:36:14;101200.56;;;16.73;59.73
12360;BME280;6244;51.460;7.090;2023-06-01T00:41:12;101205.00;;;16.73;60.00
12360;BME280;6244;51.460;7.090;2023-06-01T00:46:08;101207.31;;;16.65;59.48
12360;BME280;6244;51.460;7.090;2023-06-01T00:51:05;101207.03;;;16.69;59.09
12360;BME280;6244;51.460;7.090;2023-06-01T00:56:02;101200.88;;;16.69;59.43
12360;BME280;6244;51.460;7.090;2023-06-01T01:01:00;101202.31;;;16.60;59.62
12360;BME280;6244;51.460;7.090;2023-06-01T01:06:04;101197.56;;;16.65;59.56
12360;BME280;6244;51.460;7.090;2023-06-01T01:11:15;101207.38;;;16.78;59.07
12360;BME280;6244;51.460;7.090;2023-06-01T01:16:20;101207.50;;;16.62;59.02
12360;BME280;6244;51.460;7.090;2023-06-01T01:21:26;101207.78;;;16.71;59.26
12360;BME280;6244;51.460;7.090;2023-06-01T01:26:43;101205.47;;;16.80;58.57
12360;BME280;6244;51.460;7.090;2023-06-01T01:31:45;101205.22;;;16.70;58.65
12360;BME280;6244;51.460;7.090;2023-06-01T01:36:41;101207.13;;;16.68;59.00
12360;BME280;6244;51.460;7.090;2023-06-01T01:41:38;101204.50;;;16.68;58.73
12360;BME280;6244;51.460;7.090;2023-06-01T01:46:40;101209.69;;;16.69;58.71
12360;BME280;6244;51.460;7.090;2023-06-01T01:51:48;101212.81;;;16.62;58.41
12360;BME280;6244;51.460;7.090;2023-06-01T01:56:46;101210.78;;;16.53;58.92
12360;BME280;6244;51.460;7.090;2023-06-01T02:01:45;101219.47;;;16.42;59.07
12360;BME280;6244;51.460;7.090;2023-06-01T02:06:43;101208.13;;;16.40;58.74
12360;BME280;6244;51.460;7.090;2023-06-01T02:11:40;101212.22;;;16.31;59.04
12360;BME280;6244;51.460;7.090;2023-06-01T02:16:36;101212.91;;;16.21;59.41
12360;BME280;6244;51.460;7.090;2023-06-01T02:21:33;101215.94;;;16.02;59.36
12360;BME280;6244;51.460;7.090;2023-06-01T02:26:31;101217.03;;;15.71;60.36
12360;BME280;6244;51.460;7.090;2023-06-01T02:31:28;101216.75;;;15.47;61.54
12360;BME280;6244;51.460;7.090;2023-06-01T02:36:25;101210.63;;;15.46;61.63
12360;BME280;6244;51.460;7.090;2023-06-01T02:41:21;101209.09;;;15.71;60.94
12360;BME280;6244;51.460;7.090;2023-06-01T02:46:19;101207.28;;;15.71;60.35
12360;BME280;6244;51.460;7.090;2023-06-01T02:51:16;101215.53;;;15.67;60.43
12360;BME280;6244;51.460;7.090;2023-06-01T02:56:14;101228.84;;;15.37;60.44
12360;BME280;6244;51.460;7.090;2023-06-01T03:01:10;101222.53;;;15.39;61.36
12360;BME280;6244;51.460;7.090;2023-06-01T03:06:09;101219.59;;;15.30;60.99
12360;BME280;6244;51.460;7.090;2023-06-01T03:11:08;101221.66;;;15.24;60.78
12360;BME280;6244;51.460;7.090;2023-06-01T03:16:04;101234.91;;;15.39;60.97
12360;BME280;6244;51.460;7.090;2023-06-01T03:21:01;101224.59;;;15.48;60.89
12360;BME280;6244;51.460;7.090;2023-06-01T03:25:59;101221.38;;;15.43;60.25
12360;BME280;6244;51.460;7.090;2023-06-01T03:30:59;101224.28;;;14.96;61.73
12360;BME280;6244;51.460;7.090;2023-06-01T03:35:56;101229.88;;;15.06;61.14
12360;BME280;6244;51.460;7.090;2023-06-01T03:40:53;101225.53;;;14.90;61.27
12360;BME280;6244;51.460;7.090;2023-06-01T03:45:51;101224.59;;;14.91;61.01
12360;BME280;6244;51.460;7.090;2023-06-01T03:50:47;101220.81;;;14.95;60.65
12360;BME280;6244;51.460;7.090;2023-06-01T03:55:44;101220.47;;;14.72;60.75
12360;BME280;6244;51.460;7.090;2023-06-01T04:00:41;101227.84;;;14.66;60.93
12360;BME280;6244;51.460;7.090;2023-06-01T04:05:40;101229.00;;;14.77;60.84
12360;BME280;6244;51.460;7.090;2023-06-01T04:10:37;101236.53;;;14.83;60.14
12360;BME280;6244;51.460;7.090;2023-06-01T04:15:35;101236.25;;;14.87;60.13
12360;BME280;6244;51.460;7.090;2023-06-01T04:20:32;101240.56;;;14.74;59.62
12360;BME280;6244;51.460;7.090;2023-06-01T04:25:31;101235.13;;;14.77;58.87
12360;BME280;6244;51.460;7.090;2023-06-01T04:30:28;101246.16;;;14.84;58.49
12360;BME280;6244;51.460;7.090;2023-06-01T04:35:25;101250.38;;;15.02;58.45
12360;BME280;6244;51.460;7.090;2023-06-01T04:40:21;101254.97;;;15.13;58.25
12360;BME280;6244;51.460;7.090;2023-06-01T04:45:19;101254.03;;;14.99;58.41
12360;BME280;6244;51.460;7.090;2023-06-01T04:50:16;101251.38;;;14.99;57.68
12360;BME280;6244;51.460;7.090;2023-06-01T04:55:12;101256.59;;;15.01;57.60
12360;BME280;6244;51.460;7.090;2023-06-01T05:00:10;101260.34;;;14.97;56.76
12360;BME280;6244;51.460;7.090;2023-06-01T05:05:09;101242.06;;;14.64;58.58
12360;BME280;6244;51.460;7.090;2023-06-01T05:10:08;101241.56;;;14.57;58.77
12360;BME280;6244;51.460;7.090;2023-06-01T05:15:07;101236.91;;;14.77;57.63
12360;BME280;6244;51.460;7.090;2023-06-01T05:20:05;101239.06;;;14.70;58.69
12360;BME280;6244;51.460;7.090;2023-06-01T05:25:09;101238.72;;;14.76;57.84
12360;BME280;6244;51.460;7.090;2023-06-01T05:30:06;101240.16;;;14.96;58.02
12360;BME280;6244;51.460;7.090;2023-06-01T05:35:04;101244.78;;;14.92;56.78
12360;BME280;6244;51.460;7.090;2023-06-01T05:40:01;101248.97;;;14.66;58.13
12360;BME280;6244;51.460;7.090;2023-06-01T05:45:02;101253.03;;;14.72;57.33
12360;BME280;6244;51.460;7.090;2023-06-01T05:49:58;101261.47;;;14.93;57.84
12360;BME280;6244;51.460;7.090;2023-06-01T05:54:55;101263.78;;;14.69;58.46
12360;BME280;6244;51.460;7.090;2023-06-01T05:59:51;101259.31;;;14.99;57.49
12360;BME280;6244;51.460;7.090;2023-06-01T06:04:50;101249.41;;;14.89;56.82
12360;BME280;6244;51.460;7.090;2023-06-01T06:09:46;101250.38;;;15.16;57.07
12360;BME280;6244;51.460;7.090;2023-06-01T06:14:43;101249.22;;;15.06;57.90
12360;BME280;6244;51.460;7.090;2023-06-01T06:19:41;101246.50;;;15.36;56.87
12360;BME280;6244;51.460;7.090;2023-06-01T06:24:40;101245.28;;;15.27;55.56
12360;BME280;6244;51.460;7.090;2023-06-01T06:29:37;101247.53;;;15.48;55.04
12360;BME280;6244;51.460;7.090;2023-06-01T06:34:33;101260.31;;;15.70;55.04
12360;BME280;6244;51.460;7.090;2023-06-01T06:39:31;101255.59;;;15.61;55.27
12360;BME280;6244;51.460;7.090;2023-06-01T06:44:29;101250.47;;;15.57;55.87
12360;BME280;6244;51.460;7.090;2023-06-01T06:49:26;101258.16;;;15.76;55.29
12360;BME280;6244;51.460;7.090;2023-06-01T06:54:22;101258.88;;;15.93;54.28
12360;BME280;6244;51.460;7.090;2023-06-01T06:59:19;101260.56;;;15.94;53.90
12360;BME280;6244;51.460;7.090;2023-06-01T07:04:17;101268.63;;;15.78;54.28
12360;BME280;6244;51.460;7.090;2023-06-01T07:09:13;101266.19;;;15.61;55.99
12360;BME280;6244;51.460;7.090;2023-06-01T07:14:10;101281.13;;;16.17;54.62
12360;BME280;6244;51.460;7.090;2023-06-01T07:19:07;101266.19;;;16.43;53.17
12360;BME280;6244;51.460;7.090;2023-06-01T07:24:05;101271.63;;;16.27;53.11
12360;BME280;6244;51.460;7.090;2023-06-01T07:29:02;101267.56;;;15.95;53.54
12360;BME280;6244;51.460;7.090;2023-06-01T07:33:58;101268.41;;;15.95;53.83
12360;BME280;6244;51.460;7.090;2023-06-01T07:38:55;101267.28;;;16.26;53.83
12360;BME280;6244;51.460;7.090;2023-06-01T07:43:54;101270.44;;;16.45;54.07
12360;BME280;6244;51.460;7.090;2023-06-01T07:48:51;101265.91;;;16.75;52.92
12360;BME280;6244;51.460;7.090;2023-06-01T07:53:47;101268.47;;;17.01;52.52
12360;BME280;6244;51.460;7.090;2023-06-01T07:58:44;101270.69;;;17.20;51.22
12360;BME280;6244;51.460;7.090;2023-06-01T08:03:43;101268.59;;;17.38;50.10
12360;BME280;6244;51.460;7.090;2023-06-01T08:08:40;101270.50;;;17.98;49.43
12360;BME280;6244;51.460;7.090;2023-06-01T08:13:36;101276.47;;;19.20;46.22
12360;BME280;6244;51.460;7.090;2023-06-01T08:18:33;101265.63;;;18.76;46.33
12360;BME280;6244;51.460;7.090;2023-06-01T08:23:31;101263.38;;;20.17;44.58
12360;BME280;6244;51.460;7.090;2023-06-01T08:28:29;101243.69;;;21.76;40.85
12360;BME280;6244;51.460;7.090;2023-06-01T08:33:27;101244.75;;;21.63;39.83
12360;BME280;6244;51.460;7.090;2023-06-01T08:38:24;101237.19;;;22.28;39.14
12360;BME280;6244;51.460;7.090;2023-06-01T08:43:30;101231.53;;;22.99;37.23
12360;BME280;6244;51.460;7.090;2023-06-01T08:48:29;101227.91;;;23.27;36.36
12360;BME280;6244;51.460;7.090;2023-06-01T08:53:28;101223.19;;;23.11;35.14
12360;BME280;6244;51.460;7.090;2023-06-01T08:58:27;101219.69;;;23.93;35.46
12360;BME280;6244;51.460;7.090;2023-06-01T09:03:24;101211.06;;;23.99;34.07
12360;BME280;6244;51.460;7.090;2023-06-01T09:08:21;101206.69;;;24.16;34.25
12360;BME280;6244;51.460;7.090;2023-06-01T09:13:31;101194.03;;;23.91;34.73
12360;BME280;6244;51.460;7.090;2023-06-01T09:18:28;101196.50;;;24.02;33.30
12360;BME280;6244;51.460;7.090;2023-06-01T09:23:26;101194.69;;;24.38;33.26
12360;BME280;6244;51.460;7.090;2023-06-01T09:28:23;101192.88;;;24.82;33.02
12360;BME280;6244;51.460;7.090;2023-06-01T09:33:21;101192.47;;;24.77;33.35
12360;BME280;6244;51.460;7.090;2023-06-01T09:38:22;101181.66;;;24.87;32.99
12360;BME280;6244;51.460;7.090;2023-06-01T09:43:20;101177.31;;;25.62;31.42
12360;BME280;6244;51.460;7.090;2023-06-01T09:48:17;101164.50;;;25.98;31.98
12360;BME280;6244;51.460;7.090;2023-06-01T09:53:15;101167.59;;;25.61;31.64
12360;BME280;6244;51.460;7.090;2023-06-01T09:58:19;101169.22;;;25.54;32.35
12360;BME280;6244;51.460;7.090;2023-06-01T10:03:17;101164.81;;;25.87;31.47
12360;BME280;6244;51.460;7.090;2023-06-01T10:08:17;101159.66;;;26.18;31.28
12360;BME280;6244;51.460;7.090;2023-06-01T10:13:14;101163.84;;;25.54;33.33
12360;BME280;6244;51.460;7.090;2023-06-01T10:18:10;101156.06;;;25.35;32.38
12360;BME280;6244;51.460;7.090;2023-06-01T10:23:07;101152.63;;;25.16;33.41
12360;BME280;6244;51.460;7.090;2023-06-01T10:28:06;101150.59;;;24.84;35.23
12360;BME280;6244;51.460;7.090;2023-06-01T10:33:03;101147.06;;;25.52;32.90
12360;BME280;6244;51.460;7.090;2023-06-01T10:38:22;101141.78;;;25.76;32.83
12360;BME280;6244;51.460;7.090;2023-06-01T10:43:42;101126.16;;;26.29;31.16
12360;BME280;6244;51.460;7.090;2023-06-01T10:48:55;101133.22;;;27.26;29.33
12360;BME280;6244;51.460;7.090;2023-06-01T10:53:52;101128.72;;;27.18;29.32
12360;BME280;6244;51.460;7.090;2023-06-01T10:59:11;101113.94;;;27.76;28.61
12360;BME280;6244;51.460;7.090;2023-06-01T11:04:08;101117.97;;;28.03;29.77
12360;BME280;6244;51.460;7.090;2023-06-01T11:09:06;101116.44;;;27.78;28.94
12360;BME280;6244;51.460;7.090;2023-06-01T11:14:09;101117.94;;;27.18;30.86
12360;BME280;6244;51.460;7.090;2023-06-01T11:19:08;101134.00;;;27.43;30.47
12360;BME280;6244;51.460;7.090;2023-06-01T11:24:08;101118.78;;;28.27;29.09
12360;BME280;6244;51.460;7.090;2023-06-01T11:29:07;101113.31;;;28.35;27.80
12360;BME280;6244;51.460;7.090;2023-06-01T11:34:04;101108.19;;;27.79;29.76
12360;BME280;6244;51.460;7.090;2023-06-01T11:39:02;101114.50;;;27.33;29.94
12360;BME280;6244;51.460;7.090;2023-06-01T11:44:01;101102.94;;;27.16;31.12
12360;BME280;6244;51.460;7.090;2023-06-01T11:48:58;101103.31;;;27.13;32.17
12360;BME280;6244;51.460;7.090;2023-06-01T11:53:57;101102.63;;;27.19;32.55
12360;BME280;6244;51.460;7.090;2023-06-01T11:58:58;101099.38;;;27.32;31.59
12360;BME280;6244;51.460;7.090;2023-06-01T12:03:55;101092.97;;;26.85;31.34
12360;BME280;6244;51.460;7.090;2023-06-01T12:08:53;101100.06;;;25.56;34.05
12360;BME280;6244;51.460;7.090;2023-06-01T12:13:51;101098.66;;;24.42;37.08
12360;BME280;6244;51.460;7.090;2023-06-01T12:18:49;101107.69;;;23.52;38.54
12360;BME280;6244;51.460;7.090;2023-06-01T12:23:48;101102.25;;;23.16;41.03
12360;BME280;6244;51.460;7.090;2023-06-01T12:28:48;101102.22;;;22.98;40.88
12360;BME280;6244;51.460;7.090;2023-06-01T12:33:47;101099.19;;;22.74;40.09
12360;BME280;6244;51.460;7.090;2023-06-01T12:38:51;101096.31;;;22.48;42.80
12360;BME280;6244;51.460;7.090;2023-06-01T12:43:48;101091.72;;;22.68;42.34
12360;BME280;6244;51.460;7.090;2023-06-01T12:48:45;101084.41;;;22.70;41.04
12360;BME280;6244;51.460;7.090;2023-06-01T12:53:43;101096.13;;;22.59;41.57
12360;BME280;6244;51.460;7.090;2023-06-01T12:58:41;101079.84;;;22.43;42.46
12360;BME280;6244;51.460;7.090;2023-06-01T13:03:38;101085.91;;;22.45;41.58
12360;BME280;6244;51.460;7.090;2023-06-01T13:08:34;101083.34;;;22.43;43.11
12360;BME280;6244;51.460;7.090;2023-06-01T13:13:31;101078.03;;;22.34;42.32
12360;BME280;6244;51.460;7.090;2023-06-01T13:18:29;101083.56;;;22.22;42.73
12360;BME280;6244;51.460;7.090;2023-06-01T13:23:25;101089.16;;;22.19;42.80
12360;BME280;6244;51.460;7.090;2023-06-01T13:28:22;101080.59;;;22.06;42.61
12360;BME280;6244;51.460;7.090;2023-06-01T13:33:19;101084.09;;;21.97;45.38
12360;BME280;6244;51.460;7.090;2023-06-01T13:38:17;101084.66;;;21.91;43.74
12360;BME280;6244;51.460;7.090;2023-06-01T13:43:13;101077.19;;;21.65;43.65
12360;BME280;6244;51.460;7.090;2023-06-01T13:48:10;101076.50;;;21.63;43.38
12360;BME280;6244;51.460;7.090;2023-06-01T13:53:06;101071.31;;;21.72;43.19
12360;BME280;6244;51.460;7.090;2023-06-01T13:58:04;101072.16;;;21.62;42.53
12360;BME280;6244;51.460;7.090;2023-06-01T14:03:01;101066.66;;;21.54;42.27
12360;BME280;6244;51.460;7.090;2023-06-01T14:07:58;101051.19;;;21.58;43.00
12360;BME280;6244;51.460;7.090;2023-06-01T14:12:54;101049.78;;;21.63;41.90
12360;BME280;6244;51.460;7.090;2023-06-01T14:17:52;101039.38;;;21.70;42.51
12360;BME280;6244;51.460;7.090;2023-06-01T14:22:48;101045.00;;;21.48;43.00
12360;BME280;6244;51.460;7.090;2023-06-01T14:27:45;101039.22;;;21.43;44.51
12360;BME280;6244;51.460;7.090;2023-06-01T14:32:42;101031.00;;;21.15;44.48
12360;BME280;6244;51.460;7.090;2023-06-01T14:37:39;101027.00;;;20.90;44.98
12360;BME280;6244;51.460;7.090;2023-06-01T14:42:37;101025.19;;;20.91;43.45
12360;BME280;6244;51.460;7.090;2023-06-01T14:47:33;101017.66;;;21.15;43.66
12360;BME280;6244;51.460;7.090;2023-06-01T14:52:30;101012.19;;;21.17;44.36
12360;BME280;6244;51.460;7.090;2023-06-01T14:57:27;101011.25;;;21.27;44.11
12360;BME280;6244;51.460;7.090;2023-06-01T15:02:24;100999.69;;;21.17;44.27
12360;BME280;6244;51.460;7.090;2023-06-01T15:07:20;100994.50;;;21.16;42.86
12360;BME280;6244;51.460;7.090;2023-06-01T15:12:17;100988.72;;;21.20;41.27
12360;BME280;6244;51.460;7.090;2023-06-01T15:17:15;100988.34;;;21.25;42.26
12360;BME280;6244;51.460;7.090;2023-06-01T15:22:12;101004.03;;;21.18;42.96
12360;BME280;6244;51.460;7.090;2023-06-01T15:27:08;100990.56;;;21.20;42.20
12360;BME280;6244;51.460;7.090;2023-06-01T15:32:06;100987.06;;;21.09;42.61
12360;BME280;6244;51.460;7.090;2023-06-01T15:37:04;100985.03;;;20.92;43.66
12360;BME280;6244;51.460;7.090;2023-06-01T15:42:04;100988.41;;;20.94;43.28
12360;BME280;6244;51.460;7.090;2023-06-01T15:47:01;100990.22;;;20.84;42.34
12360;BME280;6244;51.460;7.090;2023-06-01T15:51:58;100974.94;;;20.86;41.82
12360;BME280;6244;51.460;7.090;2023-06-01T15:56:56;100981.38;;;20.93;41.48
12360;BME280;6244;51.460;7.090;2023-06-01T16:01:53;100961.41;;;20.78;42.21
12360;BME280;6244;51.460;7.090;2023-06-01T16:06:49;100964.88;;;20.59;42.31
12360;BME280;6244;51.460;7.090;2023-06-01T16:11:46;100956.00;;;20.59;44.02
12360;BME280;6244;51.460;7.090;2023-06-01T16:16:44;100946.09;;;20.61;42.85
12360;BME280;6244;51.460;7.090;2023-06-01T16:21:40;100940.56;;;20.52;44.84
12360;BME280;6244;51.460;7.090;2023-06-01T16:26:37;100933.69;;;20.50;44.91
12360;BME280;6244;51.460;7.090;2023-06-01T16:31:33;100923.03;;;20.50;44.11
12360;BME280;6244;51.460;7.090;2023-06-01T16:36:31;100930.25;;;20.38;45.26
12360;BME280;6244;51.460;7.090;2023-06-01T16:41:28;100926.03;;;20.36;45.17
12360;BME280;6244;51.460;7.090;2023-06-01T16:46:24;100916.47;;;20.33;45.20
12360;BME280;6244;51.460;7.090;2023-06-01T16:51:21;100919.22;;;20.12;45.56
12360;BME280;6244;51.460;7.090;2023-06-01T16:56:19;100918.38;;;20.12;45.49
12360;BME280;6244;51.460;7.090;2023-06-01T17:01:15;100911.44;;;20.00;45.78
12360;BME280;6244;51.460;7.090;2023-06-01T17:06:12;100907.97;;;20.09;46.01
12360;BME280;6244;51.460;7.090;2023-06-01T17:11:08;100906.03;;;20.11;46.59
12360;BME280;6244;51.460;7.090;2023-06-01T17:16:06;100902.16;;;19.94;46.04
12360;BME280;6244;51.460;7.090;2023-06-01T17:21:03;100905.63;;;19.85;46.49
12360;BME280;6244;51.460;7.090;2023-06-01T17:26:00;100907.03;;;19.68;48.15
12360;BME280;6244;51.460;7.090;2023-06-01T17:30:56;100912.16;;;19.39;49.57
12360;BME280;6244;51.460;7.090;2023-06-01T17:35:54;100917.53;;;19.28;50.60
12360;BME280;6244;51.460;7.090;2023-06-01T17:40:51;100921.78;;;19.19;50.60
12360;BME280;6244;51.460;7.090;2023-06-01T17:45:50;100922.03;;;19.16;51.29
12360;BME280;6244;51.460;7.090;2023-06-01T17:50:46;100921.44;;;18.81;51.45
12360;BME280;6244;51.460;7.090;2023-06-01T17:55:44;100928.56;;;18.80;52.00
12360;BME280;6244;51.460;7.090;2023-06-01T18:00:41;100933.78;;;18.70;50.89
12360;BME280;6244;51.460;7.090;2023-06-01T18:05:37;100941.84;;;18.46;51.37
12360;BME280;6244;51.460;7.090;2023-06-01T18:10:34;100944.53;;;18.35;51.25
12360;BME280;6244;51.460;7.090;2023-06-01T18:15:31;100948.41;;;18.31;50.98
12360;BME280;6244;51.460;7.090;2023-06-01T18:20:28;100955.75;;;18.16;51.37
12360;BME280;6244;51.460;7.090;2023-06-01T18:25:24;100956.97;;;18.24;51.37
12360;BME280;6244;51.460;7.090;2023-06-01T18:30:21;100960.84;;;18.53;49.80
12360;BME280;6244;51.460;7.090;2023-06-01T18:35:19;100957.34;;;18.41;49.60
12360;BME280;6244;51.460;7.090;2023-06-01T18:40:15;100957.94;;;18.34;49.41
12360;BME280;6244;51.460;7.090;2023-06-01T18:45:13;100960.84;;;18.42;48.32
12360;BME280;6244;51.460;7.090;2023-06-01T18:50:09;100953.84;;;18.30;47.93
12360;BME280;6244;51.460;7.090;2023-06-01T18:55:08;100950.09;;;18.32;47.35
12360;BME280;6244;51.460;7.090;2023-06-01T19:00:08;100954.44;;;18.44;48.10
12360;BME280;6244;51.460;7.090;2023-06-01T19:05:06;100954.22;;;18.36;48.78
12360;BME280;6244;51.460;7.090;2023-06-01T19:10:08;100959.50;;;18.25;48.58
12360;BME280;6244;51.460;7.090;2023-06-01T19:15:05;100960.81;;;18.19;49.05
12360;BME280;6244;51.460;7.090;2023-06-01T19:20:04;100967.13;;;18.30;48.79
12360;BME280;6244;51.460;7.090;2023-06-01T19:25:01;100969.59;;;17.98;48.45
12360;BME280;6244;51.460;7.090;2023-06-01T19:29:59;100965.72;;;17.79;48.87
12360;BME280;6244;51.460;7.090;2023-06-01T19:34:56;100969.22;;;17.80;48.69
12360;BME280;6244;51.460;7.090;2023-06-01T19:39:53;100977.94;;;17.93;49.28
12360;BME280;6244;51.460;7.090;2023-06-01T19:44:50;100977.19;;;17.80;49.76
12360;BME280;6244;51.460;7.090;2023-06-01T19:49:48;100971.88;;;17.80;49.67
12360;BME280;6244;51.460;7.090;2023-06-01T19:54:45;100975.25;;;17.58;50.04
12360;BME280;6244;51.460;7.090;2023-06-01T19:59:41;100982.00;;;17.51;50.17
12360;BME280;6244;51.460;7.090;2023-06-01T20:04:38;100982.84;;;17.51;49.32
12360;BME280;6244;51.460;7.090;2023-06-01T20:09:36;100989.06;;;17.39;49.67
12360;BME280;6244;51.460;7.090;2023-06-01T20:14:33;100988.56;;;17.34;49.03
12360;BME280;6244;51.460;7.090;2023-06-01T20:19:29;100989.34;;;16.99;50.17
12360;BME280;6244;51.460;7.090;2023-06-01T20:24:27;100986.56;;;16.77;50.51
12360;BME280;6244;51.460;7.090;2023-06-01T20:29:27;100994.06;;;16.58;51.39
12360;BME280;6244;51.460;7.090;2023-06-01T20:34:25;100997.78;;;16.55;51.57
12360;BME280;6244;51.460;7.090;2023-06-01T20:39:23;100991.41;;;16.58;51.43
12360;BME280;6244;51.460;7.090;2023-06-01T20:44:20;100996.44;;;16.50;51.98
12360;BME280;6244;51.460;7.090;2023-06-01T20:49:21;100998.97;;;16.38;52.21
12360;BME280;6244;51.460;7.090;2023-06-01T20:54:20;101002.47;;;16.39;51.94
12360;BME280;6244;51.460;7.090;2023-06-01T20:59:20;100999.28;;;16.47;51.58
12360;BME280;6244;51.460;7.090;2023-06-01T21:04:20;101002.97;;;16.57;52.24
12360;BME280;6244;51.460;7.090;2023-06-01T21:09:17;100998.31;;;16.22;52.82
12360;BME280;6244;51.460;7.090;2023-06-01T21:14:16;101006.50;;;16.19;52.47
12360;BME280;6244;51.460;7.090;2023-06-01T21:19:13;101014.94;;;15.99;51.90
12360;BME280;6244;51.460;7.090;2023-06-01T21:24:11;101021.91;;;15.87;51.78
12360;BME280;6244;51.460;7.090;2023-06-01T21:29:08;101017.16;;;15.92;51.14
12360;BME280;6244;51.460;7.090;2023-06-01T21:34:04;101020.47;;;16.08;50.69
12360;BME280;6244;51.460;7.090;2023-06-01T21:39:01;101015.16;;;15.96;50.43
12360;BME280;6244;51.460;7.090;2023-06-01T21:43:59;101023.94;;;15.96;51.73
12360;BME280;6244;51.460;7.090;2023-06-01T21:48:55;101029.03;;;16.12;50.58
12360;BME280;6244;51.460;7.090;2023-06-01T21:53:52;101021.53;;;16.31;49.80
12360;BME280;6244;51.460;7.090;2023-06-01T21:58:48;101020.91;;;16.28;49.23
12360;BME280;6244;51.460;7.090;2023-06-01T22:03:46;101023.84;;;16.23;49.78
12360;BME280;6244;51.460;7.090;2023-06-01T22:08:43;101023.22;;;16.20;50.08
12360;BME280;6244;51.460;7.090;2023-06-01T22:13:40;101027.16;;;16.14;50.34
12360;BME280;6244;51.460;7.090;2023-06-01T22:18:36;101039.34;;;16.29;49.43
12360;BME280;6244;51.460;7.090;2023-06-01T22:23:34;101041.53;;;16.23;49.54
12360;BME280;6244;51.460;7.090;2023-06-01T22:28:31;101042.59;;;16.07;50.00
12360;BME280;6244;51.460;7.090;2023-06-01T22:33:27;101042.69;;;16.06;49.20
12360;BME280;6244;51.460;7.090;2023-06-01T22:38:24;101040.44;;;15.87;48.93
12360;BME280;6244;51.460;7.090;2023-06-01T22:43:22;101037.59;;;15.36;50.32
12360;BME280;6244;51.460;7.090;2023-06-01T22:48:18;101042.09;;;15.63;50.02
12360;BME280;6244;51.460;7.090;2023-06-01T22:53:15;101044.41;;;15.67;49.74
12360;BME280;6244;51.460;7.090;2023-06-01T22:58:12;101045.84;;;15.58;49.87
12360;BME280;6244;51.460;7.090;2023-06-01T23:03:10;101038.28;;;15.67;49.78
12360;BME280;6244;51.460;7.090;2023-06-01T23:08:07;101042.69;;;15.93;49.26
12360;BME280;6244;51.460;7.090;2023-06-01T23:13:07;101042.16;;;15.88;49.05
12360;BME280;6244;51.460;7.090;2023-06-01T23:18:04;101040.00;;;15.80;48.88
12360;BME280;6244;51.460;7.090;2023-06-01T23:23:02;101034.63;;;15.95;48.67
12360;BME280;6244;51.460;7.090;2023-06-01T23:27:59;101030.47;;;15.78;48.52
12360;BME280;6244;51.460;7.090;2023-06-01T23:32:56;101041.56;;;15.70;48.97
12360;BME280;6244;51.460;7.090;2023-06-01T23:37:52;101046.22;;;15.67;48.77
12360;BME280;6244;51.460;7.090;2023-06-01T23:42:51;101040.66;;;15.57;48.07
12360;BME280;6244;51.460;7.090;2023-06-01T23:47:48;101043.25;;;15.44;48.66
12360;BME280;6244;51.460;7.090;2023-06-01T23:52:45;101048.19;;;15.36;48.12
12360;BME280;6244;51.460;7.090;2023-06-01T23:57:42;101047.44;;;15.34;48.72
